Time;durP1;ratioP1;P1;durP2;ratioP2;P2;SDS_P1;SDS_P2;PMS_P1;PMS_P2;Temp;Humidity;BMP_temperature;BMP_pressure;BME280_temperature;BME280_humidity;BME280_pressure;Samples;Min_cycle;Max_cycle;Signal;HPM_P1;HPM_P2
2024/01/29 00:00:45;;;;;;;8.00;4.90;;;8.10;91.00;;;;;;5077143;28;20809;-56
2024/01/29 00:03:12;;;;;;;9.57;5.50;;;8.10;91.00;;;;;;5077113;28;20464;-56
2024/01/29 00:05:39;;;;;;;9.90;5.20;;;8.10;90.90;;;;;;5077053;28;20451;-56
2024/01/29 00:08:07;;;;;;;6.23;4.83;;;8.10;91.00;;;;;;5077067;28;20444;-56
2024/01/29 00:10:34;;;;;;;5.63;4.67;;;8.10;91.00;;;;;;5077036;28;20830;-56
2024/01/29 00:13:00;;;;;;;7.23;5.13;;;8.10;91.20;;;;;;5076871;28;20487;-56
2024/01/29 00:15:27;;;;;;;7.53;5.03;;;8.10;91.30;;;;;;5076886;28;20459;-57
2024/01/29 00:17:54;;;;;;;5.43;4.50;;;8.10;91.40;;;;;;5076850;28;20440;-56
2024/01/29 00:20:20;;;;;;;7.07;4.47;;;8.10;91.50;;;;;;5076627;28;20436;-56
2024/01/29 00:22:47;;;;;;;10.00;6.60;;;8.10;91.50;;;;;;5076680;28;20449;-57
2024/01/29 00:25:15;;;;;;;13.10;7.77;;;8.10;91.60;;;;;;5076726;28;20441;-56
2024/01/29 00:27:42;;;;;;;12.47;7.90;;;8.00;91.60;;;;;;5076683;28;20448;-56
2024/01/29 00:30:10;;;;;;;12.77;7.13;;;8.00;91.50;;;;;;5076595;28;20491;-56
2024/01/29 00:32:40;;;;;;;7.37;5.30;;;8.10;91.60;;;;;;5076430;28;20498;-56
2024/01/29 00:35:07;;;;;;;7.80;5.70;;;8.00;91.60;;;;;;5076402;28;20660;-57
2024/01/29 00:37:34;;;;;;;11.80;5.50;;;8.00;91.60;;;;;;5076491;28;20443;-56
2024/01/29 00:40:01;;;;;;;7.73;5.10;;;8.00;91.70;;;;;;5076041;28;20809;-56
2024/01/29 00:42:29;;;;;;;7.03;5.10;;;8.00;91.80;;;;;;5076320;28;20440;-56
2024/01/29 00:44:56;;;;;;;8.27;5.30;;;8.00;91.80;;;;;;5076420;28;20498;-56
2024/01/29 00:47:22;;;;;;;8.10;5.13;;;8.00;91.90;;;;;;5076109;28;20824;-56
2024/01/29 00:49:49;;;;;;;9.30;5.57;;;8.00;91.90;;;;;;5076213;28;20483;-56
2024/01/29 00:52:16;;;;;;;6.57;5.33;;;8.00;92.00;;;;;;5076109;28;20460;-56
2024/01/29 00:54:42;;;;;;;9.43;4.83;;;7.90;92.00;;;;;;5076080;28;20469;-56
2024/01/29 00:57:10;;;;;;;6.50;4.77;;;7.90;92.10;;;;;;5075783;28;20436;-56
2024/01/29 00:59:38;;;;;;;7.70;4.80;;;7.90;92.20;;;;;;5076089;28;20445;-56
2024/01/29 01:02:05;;;;;;;7.97;5.30;;;7.90;92.20;;;;;;5076210;28;20451;-56
2024/01/29 01:04:32;;;;;;;6.77;4.97;;;7.90;92.30;;;;;;5075998;28;20468;-56
2024/01/29 01:06:58;;;;;;;7.27;5.03;;;7.90;92.40;;;;;;5076024;28;20437;-57
2024/01/29 01:09:25;;;;;;;7.10;4.70;;;7.90;92.40;;;;;;5075873;28;20440;-56
2024/01/29 01:11:52;;;;;;;9.20;4.93;;;7.90;92.40;;;;;;5076072;28;20799;-57
2024/01/29 01:14:19;;;;;;;6.30;4.80;;;7.90;92.40;;;;;;5075844;28;20465;-56
2024/01/29 01:16:47;;;;;;;8.20;4.80;;;7.90;92.40;;;;;;5076071;28;20460;-56
2024/01/29 01:19:14;;;;;;;6.67;4.90;;;7.90;92.50;;;;;;5075959;28;20448;-56
2024/01/29 01:21:41;;;;;;;5.80;4.63;;;7.90;92.50;;;;;;5075830;28;20514;-57
2024/01/29 01:24:08;;;;;;;6.07;4.10;;;7.90;92.60;;;;;;5075875;28;20828;-56
2024/01/29 01:26:35;;;;;;;5.17;4.67;;;7.90;92.60;;;;;;5076031;28;20449;-56
2024/01/29 01:29:01;;;;;;;9.60;5.17;;;7.90;92.70;;;;;;5076398;28;20451;-56
2024/01/29 01:31:28;;;;;;;8.43;4.50;;;7.90;92.70;;;;;;5075745;28;20502;-56
2024/01/29 01:33:56;;;;;;;6.27;4.53;;;7.90;92.60;;;;;;5075529;28;20460;-56
2024/01/29 01:36:23;;;;;;;7.27;5.40;;;7.90;92.60;;;;;;5075818;28;20445;-57
2024/01/29 01:38:50;;;;;;;6.33;4.23;;;7.90;92.70;;;;;;5075639;28;20448;-56
2024/01/29 01:41:16;;;;;;;8.10;4.50;;;7.90;92.80;;;;;;5075759;28;20441;-57
2024/01/29 01:43:43;;;;;;;6.93;4.43;;;7.90;92.90;;;;;;5075151;28;20819;-57
2024/01/29 01:46:20;;;;;;;6.27;4.47;;;7.90;93.00;;;;;;5075389;28;20954;-57
2024/01/29 01:48:47;;;;;;;7.27;4.80;;;7.90;93.00;;;;;;5075728;28;20432;-57
2024/01/29 01:51:16;;;;;;;8.10;5.33;;;7.90;93.00;;;;;;5075654;28;20483;-57
2024/01/29 01:53:45;;;;;;;7.90;4.93;;;7.90;93.00;;;;;;5075301;28;20545;-57
2024/01/29 01:56:12;;;;;;;7.67;4.90;;;7.90;93.00;;;;;;5075475;28;20840;-56
2024/01/29 01:58:41;;;;;;;5.53;4.73;;;7.90;93.00;;;;;;5075532;28;20448;-56
2024/01/29 02:01:08;;;;;;;5.83;4.70;;;7.90;93.10;;;;;;5076263;28;20445;-57
2024/01/29 02:03:35;;;;;;;7.33;5.20;;;7.90;93.10;;;;;;5076907;28;20461;-57
2024/01/29 02:06:03;;;;;;;5.50;4.60;;;7.80;93.10;;;;;;5075682;28;20938;-57
2024/01/29 02:08:31;;;;;;;6.37;4.33;;;7.90;93.20;;;;;;5075192;28;20459;-57
2024/01/29 02:10:59;;;;;;;7.40;5.00;;;7.90;93.20;;;;;;5074729;28;20620;-57
2024/01/29 02:13:26;;;;;;;8.40;4.77;;;7.90;93.10;;;;;;5074793;28;20491;-57
2024/01/29 02:15:52;;;;;;;4.50;4.00;;;7.90;93.10;;;;;;5074476;28;20445;-56
2024/01/29 02:18:19;;;;;;;5.13;4.47;;;7.90;93.20;;;;;;5073788;28;20487;-56
2024/01/29 02:20:46;;;;;;;8.80;4.20;;;7.90;93.20;;;;;;5074426;28;20444;-56
2024/01/29 02:23:15;;;;;;;5.47;4.30;;;7.90;93.30;;;;;;5074304;28;20464;-57
2024/01/29 02:25:41;;;;;;;7.73;5.07;;;7.90;93.30;;;;;;5074394;28;20449;-56
2024/01/29 02:28:08;;;;;;;4.57;3.83;;;7.90;93.40;;;;;;5074596;28;20445;-56
2024/01/29 02:30:35;;;;;;;5.67;4.60;;;7.90;93.50;;;;;;5074112;28;20480;-56
2024/01/29 02:33:01;;;;;;;4.80;4.23;;;7.90;93.50;;;;;;5074233;28;20468;-56
2024/01/29 02:35:28;;;;;;;4.40;4.00;;;7.90;93.60;;;;;;5073834;28;20444;-56
2024/01/29 02:37:55;;;;;;;5.10;4.27;;;7.90;93.70;;;;;;5074395;28;20837;-56
2024/01/29 02:40:23;;;;;;;7.43;4.77;;;7.90;93.70;;;;;;5074186;28;20540;-56
2024/01/29 02:42:49;;;;;;;4.90;4.03;;;7.90;93.60;;;;;;5074219;28;20441;-57
2024/01/29 02:45:16;;;;;;;5.70;3.90;;;7.80;93.60;;;;;;5073815;28;20822;-56
2024/01/29 02:47:43;;;;;;;4.27;3.87;;;7.80;93.60;;;;;;5074062;28;20444;-56
2024/01/29 02:50:10;;;;;;;4.73;4.27;;;7.80;93.70;;;;;;5073778;28;20476;-56
2024/01/29 02:52:37;;;;;;;6.80;4.10;;;7.80;93.70;;;;;;5073497;28;20839;-56
2024/01/29 02:55:05;;;;;;;7.23;4.17;;;7.80;93.80;;;;;;5073784;28;20436;-56
2024/01/29 02:57:33;;;;;;;5.23;4.10;;;7.80;93.80;;;;;;5073728;28;20455;-56
2024/01/29 02:59:59;;;;;;;8.10;5.00;;;7.70;93.80;;;;;;5073813;28;20448;-56
2024/01/29 03:02:26;;;;;;;7.97;4.13;;;7.70;94.20;;;;;;5073746;28;20445;-57
2024/01/29 03:04:53;;;;;;;5.00;3.97;;;7.70;93.90;;;;;;5073513;28;20467;-57
2024/01/29 03:07:19;;;;;;;5.00;4.40;;;7.70;94.00;;;;;;5073704;28;20449;-56
2024/01/29 03:09:46;;;;;;;4.10;3.50;;;7.70;94.00;;;;;;5073589;28;20444;-56
2024/01/29 03:12:13;;;;;;;4.30;3.90;;;7.70;93.90;;;;;;5073607;28;20480;-56
2024/01/29 03:14:41;;;;;;;5.30;4.20;;;7.70;94.00;;;;;;5073097;28;20997;-56
2024/01/29 03:17:08;;;;;;;4.93;4.07;;;7.60;94.10;;;;;;5073442;28;20448;-56
2024/01/29 03:19:35;;;;;;;4.63;3.80;;;7.60;94.20;;;;;;5073546;28;20479;-56
2024/01/29 03:22:01;;;;;;;6.43;4.43;;;7.60;94.30;;;;;;5073511;28;20441;-56
2024/01/29 03:24:28;;;;;;;4.67;4.10;;;7.60;94.30;;;;;;5073427;28;20464;-57
2024/01/29 03:26:55;;;;;;;6.37;4.60;;;7.60;94.30;;;;;;5073405;28;20445;-56
2024/01/29 03:29:21;;;;;;;7.07;4.37;;;7.60;94.20;;;;;;5073476;28;20444;-56
2024/01/29 03:31:49;;;;;;;4.93;4.33;;;7.60;94.20;;;;;;5073261;28;20476;-56
2024/01/29 03:34:16;;;;;;;6.53;4.50;;;7.50;94.20;;;;;;5073169;28;20472;-56
2024/01/29 03:36:44;;;;;;;5.93;4.73;;;7.50;94.30;;;;;;5073415;28;20444;-56
2024/01/29 03:39:11;;;;;;;6.77;4.63;;;7.50;94.40;;;;;;5073292;28;20440;-57
2024/01/29 03:41:37;;;;;;;5.30;4.40;;;7.50;94.50;;;;;;5073286;28;20436;-56
2024/01/29 03:44:04;;;;;;;5.60;3.93;;;7.50;94.60;;;;;;5073224;28;20461;-56
2024/01/29 03:46:31;;;;;;;4.53;4.03;;;7.50;94.60;;;;;;5073018;28;20452;-56
2024/01/29 03:48:59;;;;;;;6.63;4.57;;;7.50;94.60;;;;;;5072932;28;20436;-56
2024/01/29 03:51:26;;;;;;;4.57;3.90;;;7.40;94.70;;;;;;5073134;28;20480;-56
2024/01/29 03:53:52;;;;;;;7.00;4.27;;;7.50;94.80;;;;;;5072667;28;20480;-56
2024/01/29 03:56:19;;;;;;;7.40;4.40;;;7.40;94.80;;;;;;5073165;28;20448;-56
2024/01/29 03:58:46;;;;;;;7.00;3.80;;;7.40;94.90;;;;;;5073116;28;20452;-56
2024/01/29 04:01:12;;;;;;;4.53;3.83;;;7.40;94.90;;;;;;5073097;28;20437;-56
2024/01/29 04:03:40;;;;;;;4.77;4.27;;;7.40;95.00;;;;;;5073109;28;20471;-56
2024/01/29 04:06:08;;;;;;;4.53;3.67;;;7.40;95.00;;;;;;5073019;28;20472;-57
2024/01/29 04:08:35;;;;;;;7.47;4.10;;;7.40;95.00;;;;;;5072987;28;20893;-56
2024/01/29 04:11:01;;;;;;;5.27;4.10;;;7.40;95.00;;;;;;5072806;28;20511;-56
2024/01/29 04:13:28;;;;;;;7.10;4.20;;;7.40;95.10;;;;;;5072916;28;20502;-56
2024/01/29 04:15:55;;;;;;;7.23;4.50;;;7.40;95.10;;;;;;5072638;28;21057;-56
2024/01/29 04:18:22;;;;;;;6.80;4.47;;;7.40;95.10;;;;;;5073020;28;20451;-56
2024/01/29 04:20:49;;;;;;;7.23;3.70;;;7.40;95.20;;;;;;5072905;28;20441;-56
2024/01/29 04:23:17;;;;;;;5.40;4.30;;;7.40;95.10;;;;;;5072852;28;20575;-56
2024/01/29 04:25:44;;;;;;;6.57;4.30;;;7.40;95.10;;;;;;5072834;28;20950;-57
2024/01/29 04:28:11;;;;;;;7.37;3.93;;;7.30;95.10;;;;;;5073103;28;20441;-56
2024/01/29 04:30:37;;;;;;;5.40;3.77;;;7.30;95.30;;;;;;5072820;28;20484;-57
2024/01/29 04:33:04;;;;;;;4.87;4.00;;;7.30;95.30;;;;;;5072933;28;20475;-57
2024/01/29 04:35:49;;;;;;;7.30;4.33;;;7.30;95.40;;;;;;5072931;28;20440;-56
2024/01/29 04:38:17;;;;;;;6.93;4.17;;;7.30;95.50;;;;;;5072518;28;20443;-56
2024/01/29 04:40:44;;;;;;;5.37;4.07;;;7.30;95.50;;;;;;5073592;28;20433;-56
2024/01/29 04:43:11;;;;;;;4.80;3.60;;;7.30;95.60;;;;;;5076407;28;20495;-56
2024/01/29 04:45:38;;;;;;;4.30;3.90;;;7.20;95.60;;;;;;5076426;28;20441;-56
2024/01/29 04:48:05;;;;;;;8.73;5.20;;;7.30;95.80;;;;;;5076056;28;20965;-56
2024/01/29 04:50:31;;;;;;;5.80;5.20;;;7.30;95.80;;;;;;5076164;28;20444;-56
2024/01/29 04:52:58;;;;;;;9.83;5.23;;;7.20;95.80;;;;;;5075933;28;20479;-56
2024/01/29 04:55:26;;;;;;;5.40;4.90;;;7.30;95.80;;;;;;5076476;28;20436;-56
2024/01/29 04:57:53;;;;;;;7.03;4.57;;;7.30;95.90;;;;;;5076042;28;20452;-56
2024/01/29 05:00:20;;;;;;;6.30;4.77;;;7.30;95.90;;;;;;5076009;28;20452;-56
2024/01/29 05:02:48;;;;;;;7.57;4.37;;;7.30;95.90;;;;;;5075887;28;20436;-56
2024/01/29 05:05:16;;;;;;;5.20;4.27;;;7.20;95.90;;;;;;5075946;28;20483;-56
2024/01/29 05:07:43;;;;;;;5.30;4.20;;;7.20;95.90;;;;;;5076018;28;20441;-56
2024/01/29 05:10:10;;;;;;;5.50;4.00;;;7.20;95.90;;;;;;5075486;28;20476;-56
2024/01/29 05:12:38;;;;;;;5.17;4.10;;;7.20;96.00;;;;;;5075657;28;20598;-57
2024/01/29 05:15:05;;;;;;;8.37;4.73;;;7.20;96.00;;;;;;5075777;28;20445;-56
2024/01/29 05:17:32;;;;;;;6.23;4.77;;;7.20;96.10;;;;;;5075508;28;20930;-56
2024/01/29 05:19:59;;;;;;;6.50;4.70;;;7.20;96.10;;;;;;5075760;28;20924;-56
2024/01/29 05:22:25;;;;;;;5.33;4.23;;;7.20;96.00;;;;;;5075913;28;20436;-56
2024/01/29 05:24:52;;;;;;;6.30;4.37;;;7.20;96.10;;;;;;5075495;28;20476;-56
2024/01/29 05:27:19;;;;;;;6.83;5.13;;;7.20;96.10;;;;;;5075547;28;20448;-56
2024/01/29 05:29:47;;;;;;;6.73;4.50;;;7.10;96.10;;;;;;5075575;28;20459;-56
2024/01/29 05:32:15;;;;;;;6.47;4.20;;;7.10;96.30;;;;;;5075217;28;20485;-56
2024/01/29 05:34:42;;;;;;;5.87;4.60;;;7.10;96.30;;;;;;5075449;28;20826;-56
2024/01/29 05:37:08;;;;;;;10.17;5.77;;;7.10;96.40;;;;;;5075314;28;20441;-56
2024/01/29 05:39:35;;;;;;;7.67;4.90;;;7.10;96.50;;;;;;5074946;28;20961;-56
2024/01/29 05:42:02;;;;;;;5.00;4.50;;;7.00;96.50;;;;;;5075013;28;20965;-57
2024/01/29 05:44:28;;;;;;;5.07;4.57;;;7.10;96.60;;;;;;5075198;28;20465;-56
2024/01/29 05:46:56;;;;;;;5.20;4.57;;;7.00;96.50;;;;;;5075202;28;20444;-56
2024/01/29 05:49:23;;;;;;;6.00;4.80;;;7.00;96.60;;;;;;5075271;28;20455;-57
2024/01/29 05:51:50;;;;;;;5.80;5.13;;;7.00;96.70;;;;;;5074081;28;20563;-56
2024/01/29 05:54:17;;;;;;;4.87;4.33;;;7.00;96.70;;;;;;5074599;28;20471;-56
2024/01/29 05:56:44;;;;;;;7.47;4.80;;;7.00;96.80;;;;;;5074936;28;20445;-56
2024/01/29 05:59:10;;;;;;;7.30;4.97;;;7.00;96.80;;;;;;5074607;28;20871;-56
2024/01/29 06:01:37;;;;;;;6.83;4.60;;;7.00;96.80;;;;;;5074869;28;20448;-56
2024/01/29 06:04:05;;;;;;;6.10;4.87;;;7.00;96.90;;;;;;5074719;28;20460;-56
2024/01/29 06:06:32;;;;;;;6.90;4.53;;;7.00;97.00;;;;;;5074485;28;20973;-56
2024/01/29 06:08:58;;;;;;;7.67;4.53;;;7.00;97.10;;;;;;5074799;28;20445;-56
2024/01/29 06:11:25;;;;;;;5.20;4.53;;;7.00;97.10;;;;;;5074501;28;20480;-56
2024/01/29 06:13:52;;;;;;;9.47;4.90;;;7.00;97.10;;;;;;5074536;28;20497;-56
2024/01/29 06:16:22;;;;;;;6.27;4.67;;;7.00;97.20;;;;;;5074503;28;20456;-56
2024/01/29 06:18:48;;;;;;;6.53;4.50;;;7.00;97.20;;;;;;5074521;28;20445;-56
2024/01/29 06:21:17;;;;;;;6.43;4.60;;;7.00;97.10;;;;;;5074503;28;20436;-56
2024/01/29 06:23:43;;;;;;;5.77;4.33;;;7.00;97.00;;;;;;5074336;28;20469;-56
2024/01/29 06:26:10;;;;;;;6.20;4.50;;;7.00;96.90;;;;;;5074439;28;20445;-56
2024/01/29 06:28:37;;;;;;;7.10;4.43;;;7.00;96.80;;;;;;5074274;28;20444;-56
2024/01/29 06:31:04;;;;;;;6.30;4.90;;;6.90;96.90;;;;;;5074203;28;20456;-56
2024/01/29 06:33:30;;;;;;;6.97;5.40;;;6.90;96.90;;;;;;5074057;28;20464;-57
2024/01/29 06:35:59;;;;;;;6.27;5.10;;;6.90;97.00;;;;;;5074208;28;20448;-57
2024/01/29 06:38:27;;;;;;;6.00;5.10;;;6.80;97.00;;;;;;5066573;28;20819;-56
2024/01/29 06:40:54;;;;;;;5.13;4.63;;;6.80;97.00;;;;;;5054092;28;20444;-57
2024/01/29 06:43:21;;;;;;;8.90;5.30;;;6.80;97.10;;;;;;5054205;28;20465;-56
2024/01/29 06:45:47;;;;;;;5.03;4.17;;;6.80;97.20;;;;;;5053756;28;20817;-56
2024/01/29 06:48:14;;;;;;;6.83;5.17;;;6.80;97.20;;;;;;5054130;28;20457;-56
2024/01/29 06:50:41;;;;;;;6.40;5.33;;;6.80;97.20;;;;;;5053933;28;20454;-56
2024/01/29 06:53:07;;;;;;;5.17;4.60;;;6.80;97.30;;;;;;5053220;28;20842;-57
2024/01/29 06:55:35;;;;;;;5.70;5.10;;;6.80;97.30;;;;;;5053934;28;20472;-56
2024/01/29 06:58:02;;;;;;;6.60;5.30;;;6.80;97.30;;;;;;5054010;28;20445;-57
2024/01/29 07:00:29;;;;;;;7.13;4.67;;;6.80;97.40;;;;;;5053881;28;20504;-57
2024/01/29 07:02:56;;;;;;;6.00;5.27;;;6.70;97.40;;;;;;5054109;28;20462;-57
2024/01/29 07:05:22;;;;;;;8.43;6.70;;;6.70;97.50;;;;;;5053635;28;20449;-57
2024/01/29 07:07:49;;;;;;;7.67;5.73;;;6.70;97.60;;;;;;5053681;28;20445;-56
2024/01/29 07:10:16;;;;;;;11.30;6.70;;;6.70;98.00;;;;;;5053624;28;20446;-56
2024/01/29 07:12:44;;;;;;;9.00;6.37;;;6.70;97.70;;;;;;5053385;28;20568;-57
2024/01/29 07:15:12;;;;;;;7.50;5.90;;;6.70;97.70;;;;;;5053592;28;20517;-56
2024/01/29 07:17:39;;;;;;;10.23;6.50;;;6.70;97.80;;;;;;5053305;28;21053;-56
2024/01/29 07:20:08;;;;;;;9.50;6.53;;;6.70;97.90;;;;;;5053639;28;20453;-57
2024/01/29 07:22:37;;;;;;;11.63;6.57;;;6.70;97.90;;;;;;5053524;28;20448;-57
2024/01/29 07:25:04;;;;;;;11.37;8.70;;;6.70;98.00;;;;;;5053128;28;20966;-57
2024/01/29 07:27:31;;;;;;;11.87;8.20;;;6.60;98.00;;;;;;5053481;28;20449;-57
2024/01/29 07:29:59;;;;;;;13.57;8.50;;;6.60;98.10;;;;;;5053366;28;20445;-57
2024/01/29 07:32:31;;;;;;;12.77;7.90;;;6.60;98.20;;;;;;5053722;28;20991;-57
2024/01/29 07:34:58;;;;;;;14.67;7.60;;;6.60;98.20;;;;;;5053312;28;20461;-56
2024/01/29 07:37:24;;;;;;;10.67;7.77;;;6.60;98.20;;;;;;5053506;28;20441;-57
2024/01/29 07:39:51;;;;;;;10.13;7.10;;;6.60;98.20;;;;;;5053465;28;20446;-57
2024/01/29 07:42:18;;;;;;;9.90;7.07;;;6.60;98.20;;;;;;5053355;28;20523;-57
2024/01/29 07:44:45;;;;;;;10.93;7.53;;;6.70;98.30;;;;;;5053797;28;20474;-57
2024/01/29 07:47:13;;;;;;;12.93;7.60;;;6.70;98.30;;;;;;5072955;28;20479;-57
2024/01/29 07:49:40;;;;;;;7.87;6.70;;;6.70;98.30;;;;;;5073277;28;20451;-57
2024/01/29 07:52:07;;;;;;;10.43;7.40;;;6.70;98.20;;;;;;5072840;28;20487;-58
2024/01/29 07:54:34;;;;;;;15.53;8.03;;;6.70;98.20;;;;;;5073207;28;20464;-57
2024/01/29 07:57:01;;;;;;;11.50;7.77;;;6.70;98.20;;;;;;5072938;28;20814;-57
2024/01/29 07:59:29;;;;;;;14.27;8.07;;;6.70;98.20;;;;;;5071400;28;20448;-57
2024/01/29 08:01:56;;;;;;;10.27;7.83;;;6.70;98.30;;;;;;5059811;28;20441;-57
2024/01/29 08:04:24;;;;;;;9.40;6.97;;;6.70;98.30;;;;;;5053080;28;20566;-57
2024/01/29 08:06:50;;;;;;;8.23;7.00;;;6.70;98.40;;;;;;5053316;28;20448;-56
2024/01/29 08:09:18;;;;;;;11.60;7.50;;;6.80;98.50;;;;;;5053141;28;20456;-57
2024/01/29 08:11:45;;;;;;;11.43;7.03;;;6.80;98.50;;;;;;5052465;28;20990;-57
2024/01/29 08:14:11;;;;;;;13.33;7.30;;;6.80;98.50;;;;;;5053240;28;20477;-57
2024/01/29 08:16:38;;;;;;;10.00;8.20;;;6.80;98.50;;;;;;5054683;28;20956;-56
2024/01/29 08:19:05;;;;;;;14.20;8.00;;;6.90;98.60;;;;;;5056927;28;20453;-56
2024/01/29 08:21:33;;;;;;;13.20;8.83;;;6.90;98.60;;;;;;5056842;28;20445;-56
2024/01/29 08:24:02;;;;;;;12.10;9.10;;;7.00;98.60;;;;;;5056717;28;20472;-56
2024/01/29 08:26:29;;;;;;;12.90;8.27;;;7.00;98.60;;;;;;5056712;28;20457;-56
2024/01/29 08:28:55;;;;;;;13.50;8.60;;;7.00;98.60;;;;;;5056493;28;20441;-57
2024/01/29 08:31:23;;;;;;;8.73;7.53;;;7.10;98.70;;;;;;5056571;28;20545;-57
2024/01/29 08:33:50;;;;;;;11.13;8.70;;;7.10;98.60;;;;;;5056626;28;20493;-57
2024/01/29 08:36:20;;;;;;;15.60;9.20;;;7.20;98.60;;;;;;5056718;28;20449;-57
2024/01/29 08:38:48;;;;;;;19.47;8.70;;;7.20;98.50;;;;;;5056300;28;20449;-56
2024/01/29 08:41:15;;;;;;;13.23;8.93;;;7.20;98.40;;;;;;5056751;28;20441;-56
2024/01/29 08:43:42;;;;;;;14.40;9.10;;;7.30;98.30;;;;;;5056001;28;20810;-56
2024/01/29 08:46:10;;;;;;;13.10;9.67;;;7.40;98.30;;;;;;5056517;28;20442;-57
2024/01/29 08:48:37;;;;;;;12.67;9.60;;;7.40;98.30;;;;;;5056587;28;20449;-57
2024/01/29 08:51:04;;;;;;;13.87;9.00;;;7.50;98.20;;;;;;5056312;28;20449;-57
2024/01/29 08:53:31;;;;;;;19.47;10.47;;;7.50;98.20;;;;;;5055679;28;21010;-56
2024/01/29 08:56:00;;;;;;;17.13;9.00;;;7.60;98.30;;;;;;5056786;28;20434;-57
2024/01/29 08:58:26;;;;;;;13.80;10.00;;;7.60;98.20;;;;;;5056543;28;20544;-57
2024/01/29 09:00:54;;;;;;;11.73;8.13;;;7.70;98.20;;;;;;5056132;28;20954;-56
2024/01/29 09:03:21;;;;;;;13.57;8.37;;;7.70;98.20;;;;;;5056053;28;20480;-56
2024/01/29 09:05:47;;;;;;;14.57;9.80;;;7.80;98.20;;;;;;5056270;28;20510;-56
2024/01/29 09:08:14;;;;;;;12.73;8.53;;;7.80;98.10;;;;;;5056147;28;20940;-56
2024/01/29 09:10:41;;;;;;;12.90;8.73;;;7.90;98.20;;;;;;5056059;28;20837;-56
2024/01/29 09:13:09;;;;;;;14.77;8.87;;;8.00;98.20;;;;;;5055767;28;20492;-56
2024/01/29 09:15:36;;;;;;;12.40;8.73;;;8.00;98.10;;;;;;5056636;28;20800;-56
2024/01/29 09:18:02;;;;;;;8.60;7.70;;;8.10;98.10;;;;;;5056150;28;20445;-56
2024/01/29 09:20:29;;;;;;;14.17;8.47;;;8.20;98.10;;;;;;5055537;28;20444;-56
2024/01/29 09:22:56;;;;;;;15.50;9.10;;;8.20;98.00;;;;;;5056076;28;20520;-56
2024/01/29 09:25:22;;;;;;;16.47;11.00;;;8.30;98.00;;;;;;5055972;28;20932;-56
2024/01/29 09:27:49;;;;;;;12.80;9.10;;;8.40;97.90;;;;;;5055996;28;20445;-56
2024/01/29 09:30:17;;;;;;;17.80;10.20;;;8.40;98.10;;;;;;5055961;28;20464;-56
2024/01/29 09:32:44;;;;;;;19.27;10.57;;;8.50;97.70;;;;;;5055515;28;21014;-57
2024/01/29 09:35:11;;;;;;;19.23;10.47;;;8.60;97.70;;;;;;5055811;28;20448;-56
2024/01/29 09:37:39;;;;;;;20.13;11.40;;;8.70;97.60;;;;;;5056817;28;20468;-56
2024/01/29 09:40:10;;;;;;;20.67;10.67;;;8.80;97.50;;;;;;5055979;28;20453;-56
2024/01/29 09:42:40;;;;;;;17.40;11.33;;;8.80;97.20;;;;;;5056755;28;20422;-57
2024/01/29 09:45:11;;;;;;;23.73;11.77;;;8.90;97.20;;;;;;5056330;28;20432;-57
2024/01/29 09:47:40;;;;;;;20.43;12.40;;;9.00;97.00;;;;;;5057367;28;20480;-57
2024/01/29 09:50:10;;;;;;;16.50;10.83;;;9.00;96.90;;;;;;5077161;28;20793;-57
2024/01/29 09:52:39;;;;;;;15.97;10.53;;;9.10;97.10;;;;;;5077571;28;20488;-57
2024/01/29 09:55:07;;;;;;;16.83;10.57;;;9.20;96.60;;;;;;5077233;28;20441;-57
2024/01/29 09:57:35;;;;;;;16.90;9.63;;;9.30;96.50;;;;;;5077283;28;20448;-57
2024/01/29 10:00:02;;;;;;;14.20;9.80;;;9.30;96.40;;;;;;5075837;28;20444;-57
2024/01/29 10:02:33;;;;;;;13.23;8.77;;;9.40;96.30;;;;;;5074540;28;20443;-57
2024/01/29 10:05:01;;;;;;;15.83;9.10;;;9.50;96.10;;;;;;5074687;28;20974;-56
2024/01/29 10:07:28;;;;;;;19.17;8.90;;;9.60;96.00;;;;;;5074848;28;20448;-56
2024/01/29 10:09:55;;;;;;;14.47;9.30;;;9.70;95.90;;;;;;5074804;28;20440;-56
2024/01/29 10:12:23;;;;;;;13.47;9.50;;;9.80;95.80;;;;;;5074342;28;20930;-56
2024/01/29 10:14:49;;;;;;;15.50;10.10;;;9.90;95.70;;;;;;5074492;28;20471;-56
2024/01/29 10:17:16;;;;;;;10.60;8.70;;;10.00;95.40;;;;;;5074606;28;20437;-56
2024/01/29 10:19:44;;;;;;;12.37;8.13;;;10.10;94.80;;;;;;5074469;28;20894;-56
2024/01/29 10:22:13;;;;;;;12.57;7.80;;;10.10;94.50;;;;;;5074230;28;20444;-56
2024/01/29 10:24:40;;;;;;;11.67;8.07;;;10.30;94.40;;;;;;5074195;28;21006;-56
2024/01/29 10:27:08;;;;;;;11.20;7.30;;;10.30;94.20;;;;;;5074381;28;20436;-56
2024/01/29 10:29:35;;;;;;;10.07;7.87;;;10.50;94.10;;;;;;5074059;28;20444;-56
2024/01/29 10:32:02;;;;;;;11.50;7.70;;;10.60;94.00;;;;;;5074242;28;20443;-56
2024/01/29 10:34:29;;;;;;;15.93;8.13;;;10.70;93.90;;;;;;5073741;28;20484;-56
2024/01/29 10:36:59;;;;;;;7.40;6.50;;;10.70;93.80;;;;;;5074162;28;20444;-56
2024/01/29 10:39:30;;;;;;;9.03;6.80;;;10.90;93.80;;;;;;5073642;28;20445;-56
2024/01/29 10:41:57;;;;;;;9.60;7.37;;;11.00;93.80;;;;;;5074166;28;20448;-56
2024/01/29 10:44:26;;;;;;;10.47;7.27;;;11.10;93.60;;;;;;5074020;28;20487;-56
2024/01/29 10:46:54;;;;;;;8.70;6.70;;;11.30;93.60;;;;;;5073779;28;20981;-56
2024/01/29 10:49:21;;;;;;;8.90;6.73;;;11.40;93.30;;;;;;5074194;28;20448;-56
2024/01/29 10:51:51;;;;;;;9.93;7.23;;;11.60;92.90;;;;;;5074558;28;20437;-57
2024/01/29 10:54:19;;;;;;;8.00;7.20;;;11.70;92.70;;;;;;5074290;28;20994;-57
2024/01/29 10:56:47;;;;;;;10.60;7.00;;;11.90;92.60;;;;;;5074366;28;20441;-57
2024/01/29 10:59:16;;;;;;;9.30;7.20;;;12.10;92.20;;;;;;5074312;28;20519;-57
2024/01/29 11:01:45;;;;;;;10.20;8.40;;;12.20;91.80;;;;;;5074216;28;20623;-56
2024/01/29 11:04:13;;;;;;;9.63;7.53;;;12.50;91.50;;;;;;5074107;28;20465;-57
2024/01/29 11:06:47;;;;;;;8.97;7.63;;;12.70;91.10;;;;;;5074162;28;20476;-56
2024/01/29 11:09:18;;;;;;;11.40;8.37;;;12.90;90.80;;;;;;5073959;28;20424;-57
2024/01/29 11:11:48;;;;;;;9.30;7.70;;;13.20;90.30;;;;;;5073917;28;20429;-56
2024/01/29 11:14:19;;;;;;;12.47;8.10;;;13.40;89.50;;;;;;5073592;28;20637;-56
2024/01/29 11:16:46;;;;;;;13.90;8.53;;;13.80;88.00;;;;;;5073593;28;20516;-56
2024/01/29 11:19:15;;;;;;;10.13;7.67;;;14.20;85.70;;;;;;5073582;28;20445;-57
2024/01/29 11:21:45;;;;;;;9.23;7.47;;;14.60;83.50;;;;;;5073551;28;20440;-57
2024/01/29 11:24:12;;;;;;;9.30;6.77;;;15.00;82.10;;;;;;5073392;28;20842;-57
2024/01/29 11:26:39;;;;;;;8.60;7.03;;;15.40;80.00;;;;;;5073461;28;20448;-56
2024/01/29 11:29:09;;;;;;;7.97;6.93;;;15.80;77.70;;;;;;5073264;28;20494;-56
2024/01/29 11:31:40;;;;;;;7.50;6.80;;;16.10;75.10;;;;;;5073393;28;20426;-57
2024/01/29 11:34:06;;;;;;;8.73;7.83;;;16.50;72.90;;;;;;5073175;28;20491;-56
2024/01/29 11:36:36;;;;;;;8.13;7.27;;;16.80;70.50;;;;;;5073314;28;20478;-57
2024/01/29 11:39:04;;;;;;;8.83;6.80;;;17.00;68.80;;;;;;5073309;28;20885;-57
2024/01/29 11:41:31;;;;;;;11.23;8.10;;;17.30;67.40;;;;;;5073323;28;20479;-57
2024/01/29 11:43:59;;;;;;;10.00;7.70;;;17.60;65.30;;;;;;5073219;28;20492;-57
2024/01/29 11:46:28;;;;;;;11.00;7.67;;;17.80;64.00;;;;;;5073254;28;20487;-56
2024/01/29 11:48:56;;;;;;;10.43;8.50;;;18.00;63.20;;;;;;5072978;28;20939;-57
2024/01/29 11:51:22;;;;;;;7.93;6.80;;;18.20;62.10;;;;;;5075018;28;20448;-57
2024/01/29 11:53:51;;;;;;;9.80;8.80;;;18.40;60.70;;;;;;5076733;28;20923;-57
2024/01/29 11:56:18;;;;;;;16.80;7.87;;;18.60;60.20;;;;;;5077429;28;20495;-57
2024/01/29 11:58:45;;;;;;;9.63;8.13;;;18.80;59.10;;;;;;5077173;28;20443;-56
2024/01/29 12:01:12;;;;;;;9.20;7.90;;;19.00;58.30;;;;;;5077480;28;20441;-57
2024/01/29 12:03:44;;;;;;;10.73;8.70;;;19.20;57.60;;;;;;5077910;28;20460;-57
2024/01/29 12:06:11;;;;;;;9.97;8.87;;;19.30;56.50;;;;;;5077074;28;20559;-57
2024/01/29 12:08:47;;;;;;;9.93;7.40;;;19.50;56.00;;;;;;5077154;28;20519;-57
2024/01/29 12:11:14;;;;;;;13.30;8.77;;;19.70;55.20;;;;;;5077026;28;20435;-57
2024/01/29 12:13:41;;;;;;;9.50;8.40;;;19.80;54.80;;;;;;5076712;28;20496;-57
2024/01/29 12:16:09;;;;;;;11.67;7.60;;;20.00;54.10;;;;;;5077153;28;20436;-57
2024/01/29 12:18:38;;;;;;;7.60;6.80;;;20.20;54.20;;;;;;5076865;28;20448;-57
2024/01/29 12:21:07;;;;;;;9.93;8.50;;;20.40;53.60;;;;;;5076872;28;20451;-57
2024/01/29 12:23:34;;;;;;;13.50;10.87;;;20.70;52.80;;;;;;5076726;28;20456;-57
2024/01/29 12:26:00;;;;;;;11.47;9.90;;;20.90;51.60;;;;;;5076777;28;20817;-57
2024/01/29 12:28:27;;;;;;;10.33;9.23;;;21.00;50.70;;;;;;5076661;28;20514;-57
2024/01/29 12:30:55;;;;;;;13.40;8.93;;;21.20;50.50;;;;;;5077136;28;20459;-57
2024/01/29 12:33:27;;;;;;;13.20;9.07;;;21.30;49.90;;;;;;5076278;28;20480;-57
2024/01/29 12:35:54;;;;;;;15.20;8.47;;;21.50;49.50;;;;;;5076504;28;20434;-58
2024/01/29 12:38:23;;;;;;;10.90;9.10;;;21.60;49.50;;;;;;5076544;28;20562;-57
2024/01/29 12:40:54;;;;;;;8.30;7.23;;;21.70;48.90;;;;;;5076640;28;20464;-57
2024/01/29 12:43:26;;;;;;;9.87;7.90;;;21.80;48.80;;;;;;5076336;28;20464;-57
2024/01/29 12:46:03;;;;;;;9.07;8.23;;;21.80;48.30;;;;;;5076391;28;20432;-57
2024/01/29 12:48:30;;;;;;;11.00;8.20;;;21.90;48.20;;;;;;5076110;28;20898;-57
2024/01/29 12:50:57;;;;;;;8.83;7.93;;;21.90;48.40;;;;;;5076321;28;20447;-57